Tiempo atmosférico en la estación meteorológica de Espolla, Girona (94 m.)



Fecha
DESCASC
Temp. máxima en grados centígrados (hora)
DESCASC
Temp. mínima en grados centígrados (hora)
DESCASC
Temp. media en grados centígrados
DESCASC
Racha de viento máxima en m/sg (hora)
DESCASC
Velocidad máxima media en intervalos de 10 minutos(hora)
DESCASC
Precipitaciones diarias en mm
DESCASC
Precipitaciones de 00:00 a 06:00 en mm
DESCASC
Precipitaciones de 06:00 a 12:00 en mm
DESCASC
Precipitaciones de 12:00 a 18:00 en mm
DESCASC
Precipitaciones de 18:00 a 24:00 en mm
DESCASC
15-08-2019 30.3 (14:40) 17.1 (06:40) 23.7 9.72 (18:50) 5.83 (18:50) 0 0 0 0 0
14-08-2019 31 (15:30) 17.5 (00:00) 24.3 12.78 (04:10) 6.94 (00:20) 0 0 0 0 0
13-08-2019 27.9 (16:50) 19 (00:00) 23.4 18.89 (01:30) 10.83 (01:30) 0 0 0 0 0
12-08-2019 28.3 (13:50) 18.8 (00:00) 23.5 24.72 (23:00) 12.22 (23:00) 1 1 0 0 0
11-08-2019 33.2 (15:30) 21.4 (00:00) 27.3 11.39 (15:50) 7.22 (16:00) 0 0 0 0 0
10-08-2019 33.6 (13:20) 22.5 (00:00) 28 11.11 (12:50) 5.28 (17:30) 0 0 0 0 0
09-08-2019 35.6 (15:50) 21.7 (00:00) 28.6 8.06 (17:00) 5 (17:00) 0 0 0 0 0
08-08-2019 32.3 (13:50) 21.3 (00:00) 26.8 9.44 (14:20) 5.83 (15:00) 0 0 0 0 0
07-08-2019 31.1 (13:10) 22.4 (00:00) 26.8 11.39 (14:00) 6.94 (14:20) 0.8 0 0 0 0.8
06-08-2019 31.7 (14:40) 20.6 (00:00) 26.2 8.06 (15:20) 4.44 (15:20) 0 0 0 0 0
05-08-2019 31.6 (14:20) 20.7 (00:00) 26.2 8.89 (14:50) 5 (15:20) 0 0 0 0 0
04-08-2019 34.2 (14:30) 20.6 (00:00) 27.4 7.78 (15:40) 5 (17:30) 0 0 0 0 0
03-08-2019 33.1 (14:30) 19.5 (00:00) 26.3 11.94 (00:20) 6.67 (00:20) 0 0 0 0 0
02-08-2019 33.6 (16:10) 19.4 (00:00) 26.5 12.78 (23:40) 6.94 (14:10) 0 0 0 0 0
01-08-2019 31.4 (15:50) 19.1 (00:00) 25.3 8.61 (19:00) 4.72 (16:50) 0 0 0 0 0
31-07-2019 30.3 (15:10) 20 (00:00) 25.1 13.61 (00:10) 8.89 (00:10) 0 0 0 0 0
30-07-2019 31 (13:30) 20.2 (00:00) 25.6 16.67 (22:10) 8.89 (22:50) 0 0 0 0 0
29-07-2019 29.4 (14:10) 16.5 (00:00) 22.9 8.61 (14:40) 5 (14:40) 0 0 0 0 0
28-07-2019 28.7 (16:40) 19.5 (00:00) 24.1 19.44 (08:20) 10.83 (08:30) 0 0 0 0 0
27-07-2019 26.1 (10:40) 18.4 (00:00) 22.3 17.22 (21:40) 8.89 (21:00) 15 0 0 13.6 1.4
26-07-2019 32.4 (14:50) 21.4 (00:00) 26.9 9.17 (16:50) 5.56 (16:50) 0 0 0 0 0
25-07-2019 31.6 (13:30) 20.1 (00:00) 25.9 11.39 (15:40) 7.5 (15:30) 0 0 0 0 0
24-07-2019 33.1 (14:30) 21.3 (00:00) 27.2 8.06 (15:30) 5 (15:30) 0 0 0 0 0
23-07-2019 33.3 (14:30) 21.3 (00:00) 27.3 8.89 (15:50) 5.56 (16:20) 0 0 0 0 0
22-07-2019 35.1 (15:10) 21.7 (00:00) 28.4 8.06 (15:30) 5.28 (15:30) 0 0 0 0 0
21-07-2019 31 (15:40) 20.6 (00:00) 25.8 7.22 (15:00) 4.17 (14:30) 0 0 0 0 0
20-07-2019 30.6 (13:20) 20.4 (00:00) 25.5 10.83 (16:50) 6.67 (18:00) 0 0 0 0 0
19-07-2019 29.7 (14:00) 17.8 (00:00) 23.8 9.44 (15:20) 6.11 (15:20) 0 0 0 0 0
18-07-2019 32.3 (14:50) 20.6 (00:00) 26.4 12.78 (02:30) 7.22 (02:20) 0 0 0 0 0

Gráficas

Temp. máximas Temp. mínimas Temp. medias Precipitaciones Rachas de viento máximas Velocidades máximas media en intervalos de 10 minutos

Datos horarios

Fecha y hora oficial Temperatura (ºC) Velocidad del viento (km/h) Dirección del viento Racha (km/h) Dirección de racha Precipitación (mm) Presión (hPa) Tendencia (hPa) Humedad (%)
2019-08-16 23:00:00 21.9 6 Norte 11 Norte 0 -- -- 76
2019-08-16 22:00:00 22.9 3 Norte 6 Nordeste 0 -- -- 75
2019-08-16 21:00:00 24.4 3 Sudoeste 10 Sur 0 -- -- 74
2019-08-16 20:00:00 25.6 8 Sur 15 Sur 0 -- -- 68
2019-08-16 19:00:00 26.7 11 Sur 21 Sur 0 -- -- 62
2019-08-16 18:00:00 27.6 12 Sur 29 Sudoeste 0 -- -- 59
2019-08-16 17:00:00 27.7 17 Sur 27 Sur 0 -- -- 57
2019-08-16 16:00:00 28.4 15 Sur 29 Sur 0 -- -- 51
2019-08-16 15:00:00 28.5 17 Sur 30 Sur 0 -- -- 48
2019-08-16 14:00:00 29.3 14 Sur 26 Sur 0 -- -- 47
2019-08-16 13:00:00 28.7 8 Sudoeste 23 Sudoeste 0 -- -- 48
2019-08-16 12:00:00 27.4 7 Sudoeste 21 Sur 0 -- -- 50
2019-08-16 11:00:00 26.1 9 Sudoeste 15 Sudoeste 0 -- -- 54
2019-08-16 10:00:00 24.3 0 Calma 10 Nordeste 0 -- -- 50
2019-08-16 09:00:00 22 0 Calma 6 Noroeste 0 -- -- 58
2019-08-16 08:00:00 19.9 0 Calma 5 Este 0 -- -- 64
2019-08-16 07:00:00 18.7 2 Sur 8 Nordeste 0 -- -- 68
2019-08-16 06:00:00 20.4 4 Norte 10 Nordeste 0 -- -- 64
2019-08-16 05:00:00 20.9 4 Este 7 Norte 0 -- -- 63
2019-08-16 04:00:00 21.1 3 Oeste 10 Sudeste 0 -- -- 62
2019-08-16 03:00:00 21 8 Sudeste 14 Nordeste 0 -- -- 61
2019-08-16 02:00:00 21.3 4 Nordeste 7 Sur 0 -- -- 61
2019-08-16 01:00:00 21.8 5 Sudeste 14 Sur 0 -- -- 59
2019-08-16 00:00:00 22.3 7 Sur 27 Nordeste 0 -- -- 57
2019-08-15 23:00:00 22.6 9 Norte 28 Nordeste 0 -- -- 56
2019-08-15 22:00:00 22.8 4 Nordeste 14 Sudeste 0 -- -- 62
2019-08-15 21:00:00 24.5 7 Norte 27 Norte 0 -- -- 51
2019-08-15 20:00:00 24.8 14 Norte 31 Noroeste 0 -- -- 52
2019-08-15 19:00:00 25.1 16 Norte 35 Norte 0 -- -- 52
2019-08-15 18:00:00 25.9 17 Norte 32 Noroeste 0 -- -- 50
2019-08-15 17:00:00 27.6 13 Norte 25 Noroeste 0 -- -- 47
2019-08-15 16:00:00 29.3 14 Noroeste 35 Sur 0 -- -- 44
2019-08-15 15:00:00 30.2 16 Noroeste 34 Noroeste 0 -- -- 42
2019-08-15 14:00:00 28.2 18 Noroeste 31 Noroeste 0 -- -- 46
2019-08-15 13:00:00 30.2 11 Sur 25 Sur 0 -- -- 39
2019-08-15 12:00:00 29.1 8 Sur 19 Sur 0 -- -- 38
2019-08-15 11:00:00 27.7 9 Sur 17 Sur 0 -- -- 42
2019-08-15 10:00:00 26.5 5 Sudoeste 9 Sur 0 -- -- 44
2019-08-15 09:00:00 24.8 4 Sur 11 Nordeste 0 -- -- 48
2019-08-15 08:00:00 19.9 5 Nordeste 9 Nordeste 0 -- -- 62
2019-08-15 07:00:00 17.3 3 Nordeste 6 Nordeste 0 -- -- 67
2019-08-15 06:00:00 17.6 4 Norte 10 Sur 0 -- -- 64
2019-08-15 05:00:00 19.4 6 Sur 19 Nordeste 0 -- -- 61
2019-08-15 04:00:00 17.6 4 Nordeste 9 Este 0 -- -- 72
2019-08-15 03:00:00 18.2 4 Nordeste 8 Norte 0 -- -- 66
2019-08-15 02:00:00 18.3 0 Calma 7 Nordeste 0 -- -- 67
2019-08-15 01:00:00 19.3 3 Sur 11 Norte 0 -- -- 66
2019-08-15 00:00:00 19.8 3 Este 10 Norte 0 -- -- 64
2019-08-14 23:00:00 20.3 2 Nordeste 8 Nordeste 0 -- -- 60
2019-08-14 22:00:00 21.8 4 Nordeste 9 Norte 0 -- -- 59
2019-08-14 21:00:00 24 3 Nordeste 10 Sur 0 -- -- 55
2019-08-14 20:00:00 26.2 6 Sudoeste 13 Sur 0 -- -- 50
2019-08-14 19:00:00 27.1 10 Sur 26 Sur 0 -- -- 43
2019-08-14 18:00:00 28 16 Sur 27 Sur 0 -- -- 38
2019-08-14 17:00:00 28.4 16 Sur 29 Sur 0 -- -- 37
2019-08-14 16:00:00 30.7 7 Sur 22 Sur 0 -- -- 32
2019-08-14 15:00:00 30.5 8 Sudoeste 26 Norte 0 -- -- 29
2019-08-14 14:00:00 29.9 12 Noroeste 27 Noroeste 0 -- -- 29
2019-08-14 13:00:00 28.2 4 Sur 23 Noroeste 0 -- -- 32
2019-08-14 12:00:00 27.6 12 Noroeste 22 Noroeste 0 -- -- 33
2019-08-14 11:00:00 26 10 Oeste 23 Oeste 0 -- -- 38
2019-08-14 10:00:00 24 4 Oeste 11 Sur 0 -- -- 40
2019-08-14 09:00:00 22.2 8 Sur 10 Sur 0 -- -- 45
2019-08-14 08:00:00 19.4 5 Sudeste 10 Sudeste 0 -- -- 53
2019-08-14 07:00:00 17.8 0 Calma 18 Oeste 0 -- -- 55
2019-08-14 06:00:00 18.8 5 Oeste 27 Norte 0 -- -- 52
2019-08-14 05:00:00 20.1 15 Norte 46 Norte 0 -- -- 49
2019-08-14 04:00:00 19.8 18 Norte 39 Norte 0 -- -- 50
2019-08-14 03:00:00 19.9 7 Oeste 41 Norte 0 -- -- 50
2019-08-14 02:00:00 20.4 20 Norte 44 Norte 0 -- -- 50
2019-08-14 01:00:00 20.8 21 Norte 43 Norte 0 -- -- 49
2019-08-14 00:00:00 21.2 19 Norte 50 Norte 0 -- -- 46
2019-08-13 23:00:00 21.4 29 Norte 53 Norte 0 -- -- 46
2019-08-13 22:00:00 21.8 24 Norte 54 Norte 0 -- -- 45
2019-08-13 21:00:00 22.2 25 Norte 50 Norte 0 -- -- 45
2019-08-13 20:00:00 23.8 19 Norte 38 Norte 0 -- -- 43
2019-08-13 19:00:00 24.8 20 Norte 44 Norte 0 -- -- 40
2019-08-13 18:00:00 27.1 20 Norte 44 Norte 0 -- -- 35
2019-08-13 17:00:00 27.8 19 Norte 39 Norte 0 -- -- 35
2019-08-13 16:00:00 27.1 27 Norte 44 Norte 0 -- -- 34
2019-08-13 15:00:00 26.9 23 Norte 42 Noroeste 0 -- -- 37
2019-08-13 14:00:00 26.7 22 Noroeste 39 Noroeste 0 -- -- 37
2019-08-13 13:00:00 25.9 18 Noroeste 36 Norte 0 -- -- 38
2019-08-13 12:00:00 24 21 Noroeste 47 Norte 0 -- -- 42
2019-08-13 11:00:00 22.4 22 Noroeste 38 Noroeste 0 -- -- 47
2019-08-13 10:00:00 21.4 18 Norte 45 Norte 0 -- -- 49
2019-08-13 09:00:00 20.5 17 Norte 46 Nordeste 0 -- -- 54
2019-08-13 08:00:00 19.8 8 Este 40 Norte 0 -- -- 55
2019-08-13 07:00:00 19 11 Norte 36 Nordeste 0 -- -- 58
2019-08-13 06:00:00 19.3 10 Norte 53 Norte 0 -- -- 58
2019-08-13 05:00:00 19.7 27 Norte 59 Norte 0 -- -- 57
2019-08-13 04:00:00 19.9 31 Norte 63 Norte 0 -- -- 57
2019-08-13 03:00:00 20.3 31 Norte 67 Norte 0 -- -- 54
2019-08-13 02:00:00 20.9 36 Norte 68 Norte 0 -- -- 51
2019-08-13 01:00:00 21 33 Norte 64 Norte 0 -- -- 53
2019-08-13 00:00:00 21.3 34 Norte 74 Norte 0 -- -- 49
2019-08-12 23:00:00 21.5 44 Norte 89 Norte 0 -- -- 50
2019-08-12 22:00:00 21.9 38 Norte 70 Norte 0 -- -- 43
2019-08-12 21:00:00 21.8 36 Norte 80 Noroeste 0 -- -- 49
2019-08-12 20:00:00 23 34 Norte 64 Norte 0 -- -- 43
2019-08-12 19:00:00 24 31 Norte 68 Norte 0 -- -- 42
2019-08-12 18:00:00 24.5 33 Norte 61 Norte 0 -- -- 44
2019-08-12 17:00:00 25.8 27 Norte 53 Noroeste 0 -- -- 44
2019-08-12 16:00:00 26.4 27 Norte 48 Norte 0 -- -- 43
2019-08-12 15:00:00 27.8 22 Norte 40 Norte 0 -- -- 40
2019-08-12 14:00:00 28.1 22 Norte 36 Norte 0 -- -- 40
2019-08-12 13:00:00 26.6 23 Nordeste 37 Norte 0 -- -- 42
2019-08-12 12:00:00 25.8 21 Norte 38 Norte 0 -- -- 44
2019-08-12 11:00:00 24.9 12 Norte 36 Norte 0 -- -- 46
2019-08-12 10:00:00 23.9 14 Norte 34 Norte 0 -- -- 50
2019-08-12 09:00:00 22 4 Este 14 Este 0 -- -- 65
2019-08-12 08:00:00 20.4 7 Sudeste 18 Sur 0 -- -- 72
2019-08-12 07:00:00 19.6 4 Nordeste 19 Sudeste 0 -- -- 77
2019-08-12 06:00:00 18.9 5 Sudoeste 13 Nordeste 0 -- -- 83
2019-08-12 05:00:00 19.1 4 Oeste 17 Este 0.8 -- -- 84
2019-08-12 04:00:00 22.3 8 Nordeste 29 Noroeste 0.2 -- -- 65
2019-08-12 03:00:00 20.6 3 Nordeste 9 Noroeste 0 -- -- 64
2019-08-12 02:00:00 21 3 Sur 7 Oeste 0 -- -- 63
2019-08-12 01:00:00 21.6 0 Calma 9 Norte 0 -- -- 62
2019-08-12 00:00:00 22.4 7 Norte 9 Norte 0 -- -- 60
2019-08-11 23:00:00 24.2 0 Calma 14 Nordeste 0 -- -- 55
2019-08-11 22:00:00 24.5 11 Nordeste 22 Nordeste 0 -- -- 54
2019-08-11 21:00:00 25.3 10 Nordeste 22 Nordeste 0 -- -- 54
2019-08-11 20:00:00 27 13 Nordeste 22 Nordeste 0 -- -- 51
2019-08-11 19:00:00 29.2 12 Nordeste 27 Nordeste 0 -- -- 47
2019-08-11 18:00:00 29.9 17 Nordeste 36 Nordeste 0 -- -- 47
2019-08-11 17:00:00 30.2 23 Nordeste 41 Este 0 -- -- 47
2019-08-11 16:00:00 31 26 Nordeste 41 Nordeste 0 -- -- 45
2019-08-11 15:00:00 32.4 12 Sur 22 Sur 0 -- -- 40
2019-08-11 14:00:00 31.7 11 Sur 29 Sur 0 -- -- 41
2019-08-11 13:00:00 31.1 16 Sur 28 Sur 0 -- -- 42
2019-08-11 12:00:00 30.7 12 Sur 24 Sudoeste 0 -- -- 43
2019-08-11 11:00:00 29.5 10 Sudoeste 19 Sudoeste 0 -- -- 43
2019-08-11 10:00:00 28.6 6 Sur 12 Oeste 0 -- -- 45
2019-08-11 09:00:00 26.5 3 Sur 10 Este 0 -- -- 51
2019-08-11 08:00:00 23.5 4 Nordeste 11 Nordeste 0 -- -- 60
2019-08-11 07:00:00 21.5 8 Nordeste 10 Norte 0 -- -- 64
2019-08-11 06:00:00 21.4 3 Norte 9 Nordeste 0 -- -- 64
2019-08-11 05:00:00 22 4 Norte 9 Nordeste 0 -- -- 63
2019-08-11 04:00:00 21.7 0 Calma 6 Norte 0 -- -- 65
2019-08-11 03:00:00 22.3 0 Calma 6 Norte 0 -- -- 63
2019-08-11 02:00:00 23.6 2 Sudoeste 9 Este 0 -- -- 60
2019-08-11 01:00:00 24.8 3 Sudeste 13 Norte 0 -- -- 56
2019-08-11 00:00:00 26 7 Norte 23 Norte 0 -- -- 52
2019-08-10 23:00:00 26.1 9 Norte 21 Noroeste 0 -- -- 52
2019-08-10 22:00:00 26.3 4 Sur 12 Nordeste 0 -- -- 53
2019-08-10 21:00:00 27.8 4 Este 15 Norte 0 -- -- 50
2019-08-10 20:00:00 29.6 11 Nordeste 30 Este 0 -- -- 46
2019-08-10 19:00:00 31.2 14 Nordeste 31 Nordeste 0 -- -- 43
2019-08-10 18:00:00 32.2 18 Este 32 Nordeste 0 -- -- 41
2019-08-10 17:00:00 32.6 17 Este 29 Este 0 -- -- 41
2019-08-10 16:00:00 32.9 17 Este 28 Este 0 -- -- 40
2019-08-10 15:00:00 33.1 13 Este 30 Sudeste 0 -- -- 39
2019-08-10 14:00:00 32.7 10 Este 23 Este 0 -- -- 39
2019-08-10 13:00:00 33 11 Sur 40 Norte 0 -- -- 40
2019-08-10 12:00:00 31.1 8 Sudeste 20 Oeste 0 -- -- 43
2019-08-10 11:00:00 30.9 8 Oeste 15 Oeste 0 -- -- 44
2019-08-10 10:00:00 29.1 7 Sudoeste 15 Noroeste 0 -- -- 50
2019-08-10 09:00:00 27.9 9 Nordeste 17 Nordeste 0 -- -- 53
2019-08-10 08:00:00 24.8 2 Este 12 Nordeste 0 -- -- 77
2019-08-10 07:00:00 22.6 3 Norte 9 Norte 0 -- -- 87
2019-08-10 06:00:00 23.4 7 Sudeste 14 Sudeste 0 -- -- 86
2019-08-10 05:00:00 23.4 4 Noroeste 9 Nordeste 0 -- -- 89
2019-08-10 04:00:00 23.4 2 Sudoeste 9 Sudoeste 0 -- -- 88
2019-08-10 03:00:00 23.9 3 Sur 9 Sudeste 0 -- -- 86
2019-08-10 02:00:00 24.5 0 Calma 15 Nordeste 0 -- -- 84
2019-08-10 01:00:00 25.3 6 Nordeste 15 Nordeste 0 -- -- 82
2019-08-10 00:00:00 25.7 9 Nordeste 16 Nordeste 0 -- -- 80
2019-08-09 23:00:00 26.1 6 Nordeste 18 Nordeste 0 -- -- 78
2019-08-09 22:00:00 27 10 Nordeste 22 Norte 0 -- -- 77
2019-08-09 21:00:00 28.2 15 Nordeste 24 Nordeste 0 -- -- 74
2019-08-09 20:00:00 30.9 8 Nordeste 21 Sudeste 0 -- -- 65
2019-08-09 19:00:00 32 13 Sudeste 23 Sur 0 -- -- 60
2019-08-09 18:00:00 33.8 14 Sudeste 25 Sur 0 -- -- 52
2019-08-09 17:00:00 34.5 18 Sur 29 Sur 0 -- -- 51
2019-08-09 16:00:00 35.4 13 Sudeste 24 Sur 0 -- -- 47
2019-08-09 15:00:00 34.6 11 Sudeste 25 Sudeste 0 -- -- 49
2019-08-09 14:00:00 35.1 13 Sur 24 Sur 0 -- -- 46
2019-08-09 13:00:00 33.8 7 Noroeste 19 Sudoeste 0 -- -- 47
2019-08-09 12:00:00 31.5 5 Sur 16 Sur 0 -- -- 53
2019-08-09 11:00:00 29.6 8 Sudoeste 17 Sur 0 -- -- 61
2019-08-09 10:00:00 28 6 Noroeste 11 Sudoeste 0 -- -- 66
2019-08-09 09:00:00 26.5 2 Noroeste 7 Nordeste 0 -- -- 75
2019-08-09 08:00:00 23.6 5 Nordeste 14 Nordeste 0 -- -- 86
2019-08-09 07:00:00 21.7 7 Nordeste 12 Nordeste 0 -- -- 92
2019-08-09 06:00:00 22 3 Nordeste 12 Nordeste 0 -- -- 92
2019-08-09 05:00:00 22.2 8 Nordeste 12 Nordeste 0 -- -- 92
2019-08-09 04:00:00 22.2 8 Nordeste 12 Nordeste 0 -- -- 92
2019-08-09 03:00:00 22.6 8 Nordeste 11 Nordeste 0 -- -- 89
2019-08-09 02:00:00 23 6 Nordeste 10 Nordeste 0 -- -- 88
2019-08-09 01:00:00 23.7 2 Nordeste 7 Nordeste 0 -- -- 86
2019-08-09 00:00:00 24.9 5 Este 10 Sudeste 0 -- -- 84
2019-08-08 23:00:00 25.6 4 Sudeste 10 Este 0 -- -- 77
2019-08-08 22:00:00 26.6 5 Este 10 Sur 0 -- -- 74
2019-08-08 21:00:00 27.8 4 Sudeste 23 Sudeste 0 -- -- 71
2019-08-08 20:00:00 29.2 12 Sur 24 Sur 0 -- -- 67
2019-08-08 19:00:00 30.5 10 Sudeste 23 Sudeste 0 -- -- 63
2019-08-08 18:00:00 30.9 13 Sur 26 Sur 0 -- -- 63
2019-08-08 17:00:00 30.9 18 Sur 27 Sur 0 -- -- 62
2019-08-08 16:00:00 30.9 18 Sur 31 Sur 0 -- -- 61
2019-08-08 15:00:00 30.8 21 Sur 34 Sur 0 -- -- 51
2019-08-08 14:00:00 32.3 16 Sur 26 Sur 0 -- -- 46
2019-08-08 13:00:00 31.5 12 Sur 25 Sudoeste 0 -- -- 48
2019-08-08 12:00:00 30.7 11 Sudoeste 24 Sudoeste 0 -- -- 51
2019-08-08 11:00:00 29.3 5 Sur 12 Sudoeste 0 -- -- 51
2019-08-08 10:00:00 27.9 3 Sudoeste 9 Sudoeste 0 -- -- 55
2019-08-08 09:00:00 25.7 0 Calma 6 Norte 0 -- -- 64
2019-08-08 08:00:00 22.5 3 Norte 8 Nordeste 0 -- -- 76
2019-08-08 07:00:00 21.5 3 Nordeste 18 Nordeste 0 -- -- 79
2019-08-08 06:00:00 22.2 6 Nordeste 13 Nordeste 0 -- -- 77
2019-08-08 05:00:00 22.6 8 Nordeste 14 Nordeste 0 -- -- 77
2019-08-08 04:00:00 22.5 4 Norte 13 Nordeste 0 -- -- 78
2019-08-08 03:00:00 22.8 4 Nordeste 8 Nordeste 0 -- -- 79
2019-08-08 02:00:00 23.1 5 Norte 18 Nordeste 0 -- -- 76
2019-08-08 01:00:00 22.4 6 Nordeste 13 Nordeste 0 -- -- 81
2019-08-08 00:00:00 22.6 3 Norte 11 Nordeste 0 -- -- 84
2019-08-07 23:00:00 23 7 Nordeste 18 Nordeste 0 -- -- 82
2019-08-07 22:00:00 23.5 3 Nordeste 8 Norte 0 -- -- 86
2019-08-07 21:00:00 24.7 5 Nordeste 8 Nordeste 0 -- -- 82
2019-08-07 20:00:00 25 2 Norte 17 Nordeste 0 -- -- 80
2019-08-07 19:00:00 23.7 8 Nordeste 19 Nordeste 0.8 -- -- 81
2019-08-07 18:00:00 27.6 10 Nordeste 25 Nordeste 0 -- -- 53
2019-08-07 17:00:00 28.1 16 Nordeste 34 Nordeste 0 -- -- 49
2019-08-07 16:00:00 29.8 19 Nordeste 39 Este 0 -- -- 44
2019-08-07 15:00:00 28.7 17 Nordeste 41 Nordeste 0 -- -- 45
2019-08-07 14:00:00 30.1 23 Nordeste 41 Nordeste 0 -- -- 43
2019-08-07 13:00:00 30.9 19 Nordeste 38 Nordeste 0 -- -- 43
2019-08-07 12:00:00 28.5 12 Nordeste 21 Nordeste 0 -- -- 57
2019-08-07 11:00:00 27.4 5 Oeste 11 Oeste 0 -- -- 69
2019-08-07 10:00:00 26 4 Sur 9 Sudoeste 0 -- -- 75
2019-08-07 09:00:00 24.1 2 Oeste 5 Oeste 0 -- -- 86
2019-08-07 08:00:00 22.8 0 Calma 4 Nordeste 0 -- -- 89
2019-08-07 07:00:00 22.6 0 Calma 9 Nordeste 0 -- -- 88
2019-08-07 06:00:00 23.4 0 Calma 4 Noroeste 0 -- -- 88
2019-08-07 05:00:00 23.4 2 Oeste 6 Sur 0 -- -- 89
2019-08-07 04:00:00 23.5 4 Sudoeste 8 Sudoeste 0 -- -- 88
2019-08-07 03:00:00 23.1 0 Calma 9 Nordeste 0 -- -- 88
2019-08-07 02:00:00 22.9 6 Nordeste 9 Nordeste 0 -- -- 89
2019-08-07 01:00:00 23 4 Norte 5 Norte 0 -- -- 88
2019-08-07 00:00:00 23.5 2 Este 13 Norte 0 -- -- 87
2019-08-06 23:00:00 24 8 Nordeste 14 Nordeste 0 -- -- 85
2019-08-06 22:00:00 24.8 0 Calma 11 Nordeste 0 -- -- 82
2019-08-06 21:00:00 25.7 5 Noroeste 10 Sudoeste 0 -- -- 78
2019-08-06 20:00:00 26.6 8 Sur 13 Sudoeste 0 -- -- 77
2019-08-06 19:00:00 27.5 10 Sur 24 Sur 0 -- -- 72
2019-08-06 18:00:00 29.4 13 Sur 24 Sudoeste 0 -- -- 66
2019-08-06 17:00:00 29.9 14 Sur 27 Sur 0 -- -- 59
2019-08-06 16:00:00 31 14 Sur 29 Sur 0 -- -- 55
2019-08-06 15:00:00 31.4 13 Sur 24 Sur 0 -- -- 49
2019-08-06 14:00:00 31 16 Sur 27 Sudoeste 0 -- -- 40
2019-08-06 13:00:00 30.6 14 Sur 24 Sur 0 -- -- 47
2019-08-06 12:00:00 29.9 10 Sudoeste 20 Sudoeste 0 -- -- 53
2019-08-06 11:00:00 28.3 6 Sudoeste 15 Sudoeste 0 -- -- 60
2019-08-06 10:00:00 26.7 0 Calma 8 Sur 0 -- -- 66
2019-08-06 09:00:00 24.1 5 Sur 8 Este 0 -- -- 73
2019-08-06 08:00:00 22.8 4 Este 12 Norte 0 -- -- 81
2019-08-06 07:00:00 21.3 7 Norte 15 Nordeste 0 -- -- 77
2019-08-06 06:00:00 20.7 8 Nordeste 13 Nordeste 0 -- -- 76
2019-08-06 05:00:00 20.7 8 Nordeste 13 Nordeste 0 -- -- 76
2019-08-06 04:00:00 21.1 5 Norte 9 Norte 0 -- -- 74
2019-08-06 03:00:00 21.3 5 Norte 10 Nordeste 0 -- -- 75
2019-08-06 02:00:00 21.7 4 Nordeste 10 Norte 0 -- -- 74
2019-08-06 01:00:00 22.2 5 Nordeste 9 Nordeste 0 -- -- 72
2019-08-06 00:00:00 22.8 3 Nordeste 9 Nordeste 0 -- -- 69
2019-08-05 23:00:00 23.7 3 Norte 10 Nordeste 0 -- -- 67
2019-08-05 22:00:00 25.3 0 Calma 5 Oeste 0 -- -- 65
2019-08-05 21:00:00 27.2 4 Sudoeste 14 Sudeste 0 -- -- 62
2019-08-05 20:00:00 29 9 Sudeste 21 Sur 0 -- -- 53
2019-08-05 19:00:00 30.2 9 Sudeste 23 Sur 0 -- -- 52
2019-08-05 18:00:00 30.6 13 Sur 24 Sur 0 -- -- 51
2019-08-05 17:00:00 30.2 12 Sur 28 Sudoeste 0 -- -- 52
2019-08-05 16:00:00 30.3 15 Sur 30 Sur 0 -- -- 55
2019-08-05 15:00:00 30.8 18 Sur 32 Sur 0 -- -- 53
2019-08-05 14:00:00 31.4 15 Sur 24 Sur 0 -- -- 49
2019-08-05 13:00:00 31 12 Sur 22 Sudoeste 0 -- -- 49
2019-08-05 12:00:00 29.3 9 Sudoeste 18 Sudoeste 0 -- -- 55
2019-08-05 11:00:00 29.4 5 Sur 12 Sur 0 -- -- 52
2019-08-05 10:00:00 27.6 6 Sur 11 Sur 0 -- -- 56
2019-08-05 09:00:00 25.6 5 Sudoeste 9 Sudoeste 0 -- -- 63
2019-08-05 08:00:00 22.4 0 Calma 8 Este 0 -- -- 70
2019-08-05 07:00:00 20.7 3 Nordeste 12 Nordeste 0 -- -- 72
2019-08-05 06:00:00 21.3 3 Este 12 Nordeste 0 -- -- 69
2019-08-05 05:00:00 22 10 Nordeste 14 Nordeste 0 -- -- 68
2019-08-05 04:00:00 22 9 Nordeste 12 Nordeste 0 -- -- 68
2019-08-05 03:00:00 21.6 3 Este 5 Este 0 -- -- 68
2019-08-05 02:00:00 22.3 3 Norte 8 Norte 0 -- -- 64
2019-08-05 01:00:00 22.9 3 Norte 7 Norte 0 -- -- 62
2019-08-05 00:00:00 23.8 4 Nordeste 8 Nordeste 0 -- -- 58
2019-08-04 23:00:00 24.7 0 Calma 10 Nordeste 0 -- -- 55
2019-08-04 22:00:00 25.5 4 Nordeste 6 Norte 0 -- -- 52
2019-08-04 21:00:00 27.9 0 Calma 6 Sudeste 0 -- -- 48
2019-08-04 20:00:00 29 5 Sudeste 10 Sur 0 -- -- 44
2019-08-04 19:00:00 29.4 4 Sur 20 Sur 0 -- -- 40
2019-08-04 18:00:00 30.6 12 Sur 25 Sudeste 0 -- -- 36
2019-08-04 17:00:00 31.7 18 Sur 28 Sur 0 -- -- 34
2019-08-04 16:00:00 33.5 17 Sur 28 Sur 0 -- -- 32
2019-08-04 15:00:00 33.7 15 Sur 28 Sur 0 -- -- 32
2019-08-04 14:00:00 33.8 15 Sur 27 Sur 0 -- -- 29
2019-08-04 13:00:00 33 13 Sur 25 Sudeste 0 -- -- 33
2019-08-04 12:00:00 32.2 12 Sur 21 Sur 0 -- -- 33
2019-08-04 11:00:00 31.4 6 Sur 13 Sudoeste 0 -- -- 38
2019-08-04 10:00:00 29.8 3 Norte 14 Nordeste 0 -- -- 44
2019-08-04 09:00:00 26.8 6 Sur 11 Nordeste 0 -- -- 57
2019-08-04 08:00:00 24.3 12 Nordeste 21 Este 0 -- -- 54
2019-08-04 07:00:00 20.8 5 Nordeste 9 Nordeste 0 -- -- 63
2019-08-04 06:00:00 20.6 4 Nordeste 8 Nordeste 0 -- -- 66
2019-08-04 05:00:00 21 2 Nordeste 10 Nordeste 0 -- -- 66
2019-08-04 04:00:00 21.7 6 Nordeste 13 Nordeste 0 -- -- 64
2019-08-04 03:00:00 22 9 Nordeste 14 Nordeste 0 -- -- 65
2019-08-04 02:00:00 22.1 5 Nordeste 12 Nordeste 0 -- -- 66
2019-08-04 01:00:00 23.3 7 Nordeste 15 Norte 0 -- -- 61
2019-08-04 00:00:00 23.7 9 Nordeste 15 Norte 0 -- -- 62
2019-08-03 23:00:00 24 7 Nordeste 12 Nordeste 0 -- -- 60
2019-08-03 22:00:00 25 3 Nordeste 6 Nordeste 0 -- -- 60
2019-08-03 21:00:00 27.2 3 Sur 11 Sur 0 -- -- 56
2019-08-03 20:00:00 28.5 4 Sur 17 Sur 0 -- -- 51
2019-08-03 19:00:00 29.4 10 Sur 18 Sudoeste 0 -- -- 43
2019-08-03 18:00:00 30.3 13 Sur 27 Sur 0 -- -- 38
2019-08-03 17:00:00 30.8 19 Sur 29 Sur 0 -- -- 33
2019-08-03 16:00:00 31.7 19 Sur 31 Sur 0 -- -- 32
2019-08-03 15:00:00 32.8 16 Sudeste 29 Sur 0 -- -- 33
2019-08-03 14:00:00 32.7 14 Sur 26 Sur 0 -- -- 34
2019-08-03 13:00:00 32 12 Sudeste 30 Sur 0 -- -- 37
2019-08-03 12:00:00 31.6 6 Sudoeste 16 Sudoeste 0 -- -- 36
2019-08-03 11:00:00 30.6 9 Sudoeste 17 Sudoeste 0 -- -- 37
2019-08-03 10:00:00 28.9 6 Oeste 10 Sudoeste 0 -- -- 39
2019-08-03 09:00:00 25.9 0 Calma 5 Noroeste 0 -- -- 48
2019-08-03 08:00:00 22.4 2 Sudeste 9 Este 0 -- -- 57
2019-08-03 07:00:00 21.1 6 Nordeste 13 Nordeste 0 -- -- 58
2019-08-03 06:00:00 20.5 3 Norte 15 Nordeste 0 -- -- 61
2019-08-03 05:00:00 19.7 3 Nordeste 7 Norte 0 -- -- 64
2019-08-03 04:00:00 20.9 4 Nordeste 9 Norte 0 -- -- 60
2019-08-03 03:00:00 21.9 6 Norte 12 Sudeste 0 -- -- 57
2019-08-03 02:00:00 25.3 8 Sudeste 30 Nordeste 0 -- -- 48
2019-08-03 01:00:00 26.9 15 Norte 43 Norte 0 -- -- 45
2019-08-03 00:00:00 26.9 20 Noroeste 46 Norte 0 -- -- 46
2019-08-02 23:00:00 27.1 15 Norte 39 Norte 0 -- -- 45
2019-08-02 22:00:00 27.8 21 Norte 36 Norte 0 -- -- 44
2019-08-02 21:00:00 28.4 21 Norte 38 Norte 0 -- -- 42
2019-08-02 20:00:00 30 17 Norte 40 Norte 0 -- -- 39
2019-08-02 19:00:00 31 18 Norte 38 Noroeste 0 -- -- 37
2019-08-02 18:00:00 31.8 18 Norte 41 Nordeste 0 -- -- 36
2019-08-02 17:00:00 33 18 Norte 35 Norte 0 -- -- 34
2019-08-02 16:00:00 33.3 19 Norte 41 Norte 0 -- -- 33
2019-08-02 15:00:00 32.4 21 Norte 42 Norte 0 -- -- 35
2019-08-02 14:00:00 31.9 23 Noroeste 37 Noroeste 0 -- -- 35
2019-08-02 13:00:00 31.1 23 Noroeste 39 Noroeste 0 -- -- 35
2019-08-02 12:00:00 30.5 13 Norte 35 Noroeste 0 -- -- 36
2019-08-02 11:00:00 29.6 15 Norte 29 Noroeste 0 -- -- 37
2019-08-02 10:00:00 27.8 5 Sudoeste 11 Sudoeste 0 -- -- 44
2019-08-02 09:00:00 25.1 6 Sudoeste 16 Este 0 -- -- 53
2019-08-02 08:00:00 22 4 Oeste 13 Nordeste 0 -- -- 63
2019-08-02 07:00:00 19.5 5 Sudoeste 13 Sudoeste 0 -- -- 78
2019-08-02 06:00:00 20.5 3 Norte 9 Noroeste 0 -- -- 61
2019-08-02 05:00:00 21 3 Nordeste 15 Este 0 -- -- 60
2019-08-02 04:00:00 20 8 Este 12 Norte 0 -- -- 64
2019-08-02 03:00:00 20 6 Nordeste 12 Nordeste 0 -- -- 66
2019-08-02 02:00:00 20 3 Norte 11 Este 0 -- -- 68
2019-08-02 01:00:00 20.8 5 Nordeste 12 Sur 0 -- -- 66
2019-08-02 00:00:00 21.6 2 Sur 12 Nordeste 0 -- -- 58
2019-08-01 23:00:00 23.2 10 Nordeste 15 Nordeste 0 -- -- 51
2019-08-01 22:00:00 24.4 4 Norte 21 Nordeste 0 -- -- 49
2019-08-01 21:00:00 25.8 13 Nordeste 22 Nordeste 0 -- -- 44
2019-08-01 20:00:00 28.1 9 Nordeste 15 Nordeste 0 -- -- 39
2019-08-01 19:00:00 29.2 12 Nordeste 31 Nordeste 0 -- -- 36
2019-08-01 18:00:00 30.2 14 Sudeste 28 Este 0 -- -- 33
2019-08-01 17:00:00 30.7 16 Este 30 Nordeste 0 -- -- 33
2019-08-01 16:00:00 31.4 14 Este 28 Este 0 -- -- 34
2019-08-01 15:00:00 30.7 15 Este 27 Este 0 -- -- 35
2019-08-01 14:00:00 29.6 10 Nordeste 28 Nordeste 0 -- -- 36
2019-08-01 13:00:00 29.8 7 Nordeste 19 Nordeste 0 -- -- 36
2019-08-01 12:00:00 27.9 6 Nordeste 18 Norte 0 -- -- 36
2019-08-01 11:00:00 26.7 11 Nordeste 21 Norte 0 -- -- 38
2019-08-01 10:00:00 25.7 13 Norte 24 Norte 0 -- -- 41
2019-08-01 09:00:00 24.6 10 Nordeste 23 Nordeste 0 -- -- 43
2019-08-01 08:00:00 22.9 8 Nordeste 23 Nordeste 0 -- -- 45
2019-08-01 07:00:00 21.3 11 Nordeste 17 Norte 0 -- -- 47
2019-08-01 06:00:00 20.1 10 Nordeste 17 Nordeste 0 -- -- 51
2019-08-01 05:00:00 19.2 8 Nordeste 15 Nordeste 0 -- -- 58
2019-08-01 04:00:00 19.2 8 Nordeste 14 Nordeste 0 -- -- 59
2019-08-01 03:00:00 19.9 8 Nordeste 19 Nordeste 0 -- -- 59
2019-08-01 02:00:00 20.2 2 Norte 17 Nordeste 0 -- -- 59
2019-08-01 01:00:00 20.1 2 Norte 13 Nordeste 0 -- -- 61
2019-08-01 00:00:00 20.8 7 Nordeste 12 Nordeste 0 -- -- 59
2019-07-31 23:00:00 21.3 5 Nordeste 9 Norte 0 -- -- 60
2019-07-31 22:00:00 22.9 4 Nordeste 8 Nordeste 0 -- -- 56
2019-07-31 21:00:00 25.4 0 Calma 12 Sur 0 -- -- 49
2019-07-31 20:00:00 26.6 6 Sudoeste 17 Sudoeste 0 -- -- 45
2019-07-31 19:00:00 27.5 12 Sur 23 Sudoeste 0 -- -- 45
2019-07-31 18:00:00 28.3 15 Sudoeste 29 Sur 0 -- -- 43
2019-07-31 17:00:00 29.3 9 Sudoeste 32 Sur 0 -- -- 41
2019-07-31 16:00:00 30.2 9 Oeste 22 Oeste 0 -- -- 39
2019-07-31 15:00:00 29.9 13 Oeste 23 Oeste 0 -- -- 39
2019-07-31 14:00:00 28.5 8 Sur 23 Oeste 0 -- -- 41
2019-07-31 13:00:00 27.6 7 Oeste 22 Sudoeste 0 -- -- 43
2019-07-31 12:00:00 26.4 11 Noroeste 18 Noroeste 0 -- -- 46
2019-07-31 11:00:00 24.9 4 Noroeste 17 Sur 0 -- -- 50
2019-07-31 10:00:00 23.4 5 Sudoeste 12 Sudoeste 0 -- -- 53
2019-07-31 09:00:00 21.4 5 Sudoeste 12 Sur 0 -- -- 57
2019-07-31 08:00:00 20.7 6 Sudeste 13 Sudoeste 0 -- -- 58
2019-07-31 07:00:00 20.2 4 Sudeste 12 Sur 0 -- -- 59
2019-07-31 06:00:00 20.9 6 Sudeste 33 Nordeste 0 -- -- 56
2019-07-31 05:00:00 21.2 18 Norte 35 Norte 0 -- -- 54
2019-07-31 04:00:00 21.4 7 Nordeste 27 Norte 0 -- -- 54
2019-07-31 03:00:00 22.1 13 Norte 36 Norte 0 -- -- 51
2019-07-31 02:00:00 22.3 14 Norte 45 Norte 0 -- -- 50
2019-07-31 01:00:00 22.5 25 Norte 49 Norte 0 -- -- 49
2019-07-31 00:00:00 22.9 26 Norte 58 Norte 0 -- -- 48
2019-07-30 23:00:00 22.6 31 Norte 60 Norte 0 -- -- 48
2019-07-30 22:00:00 22.6 26 Norte 48 Norte 0 -- -- 49
2019-07-30 21:00:00 23.2 19 Norte 49 Norte 0 -- -- 51
2019-07-30 20:00:00 24.6 18 Norte 36 Norte 0 -- -- 48
2019-07-30 19:00:00 25.9 22 Norte 45 Noroeste 0 -- -- 46
2019-07-30 18:00:00 27.4 23 Norte 40 Noroeste 0 -- -- 45
2019-07-30 17:00:00 29.2 16 Noroeste 32 Noroeste 0 -- -- 44
2019-07-30 16:00:00 27.2 10 Norte 21 Nordeste 0 -- -- 49
2019-07-30 15:00:00 28.9 13 Norte 22 Nordeste 0 -- -- 43
2019-07-30 14:00:00 30.7 15 Noroeste 28 Noroeste 0 -- -- 39
2019-07-30 13:00:00 30.4 9 Noroeste 20 Oeste 0 -- -- 40
2019-07-30 12:00:00 29.6 16 Noroeste 24 Noroeste 0 -- -- 41
2019-07-30 11:00:00 28.8 13 Noroeste 22 Noroeste 0 -- -- 41
2019-07-30 10:00:00 27.2 7 Sur 14 Sudoeste 0 -- -- 42
2019-07-30 09:00:00 25 9 Sur 13 Sur 0 -- -- 49
2019-07-30 08:00:00 22.1 6 Este 9 Este 0 -- -- 53
2019-07-30 07:00:00 21 2 Sudeste 15 Nordeste 0 -- -- 59
2019-07-30 06:00:00 22.1 10 Nordeste 16 Nordeste 0 -- -- 57
2019-07-30 05:00:00 21.8 9 Nordeste 15 Nordeste 0 -- -- 64
2019-07-30 04:00:00 20.5 4 Norte 10 Norte 0 -- -- 70
2019-07-30 03:00:00 20.2 3 Nordeste 7 Nordeste 0 -- -- 72
2019-07-30 02:00:00 21.4 3 Norte 15 Nordeste 0 -- -- 74
2019-07-30 01:00:00 21.8 6 Nordeste 14 Norte 0 -- -- 76
2019-07-30 00:00:00 22.5 4 Nordeste 15 Nordeste 0 -- -- 77
2019-07-29 23:00:00 23.3 8 Nordeste 13 Nordeste 0 -- -- 75
2019-07-29 22:00:00 24.5 4 Nordeste 9 Nordeste 0 -- -- 74
2019-07-29 21:00:00 26.8 3 Sur 12 Sudoeste 0 -- -- 67
2019-07-29 20:00:00 27.9 8 Sur 14 Sur 0 -- -- 63
2019-07-29 19:00:00 28.7 10 Sur 19 Sur 0 -- -- 59
2019-07-29 18:00:00 28.9 11 Sur 22 Sur 0 -- -- 56
2019-07-29 17:00:00 28.6 13 Sur 25 Sur 0 -- -- 54
2019-07-29 16:00:00 28.3 16 Sur 28 Sur 0 -- -- 50
2019-07-29 15:00:00 28.9 15 Sur 31 Sur 0 -- -- 46
2019-07-29 14:00:00 29 10 Sur 23 Sudoeste 0 -- -- 41
2019-07-29 13:00:00 27.9 12 Sudoeste 24 Sur 0 -- -- 44
2019-07-29 12:00:00 27.1 8 Sudoeste 17 Sur 0 -- -- 44
2019-07-29 11:00:00 25.8 5 Sur 13 Sudeste 0 -- -- 47
2019-07-29 10:00:00 24.5 4 Sur 10 Sur 0 -- -- 47
2019-07-29 09:00:00 22.8 2 Sur 5 Este 0 -- -- 57
2019-07-29 08:00:00 19.1 3 Nordeste 10 Nordeste 0 -- -- 69
2019-07-29 07:00:00 16.7 3 Este 11 Nordeste 0 -- -- 74
2019-07-29 06:00:00 17.5 11 Nordeste 17 Nordeste 0 -- -- 72
2019-07-29 05:00:00 18 0 Calma 9 Nordeste 0 -- -- 72
2019-07-29 04:00:00 17.6 0 Calma 11 Nordeste 0 -- -- 73
2019-07-29 03:00:00 17.3 4 Norte 8 Norte 0 -- -- 75
2019-07-29 02:00:00 18 4 Norte 12 Norte 0 -- -- 79
2019-07-29 01:00:00 19.1 8 Nordeste 13 Norte 0 -- -- 76
2019-07-29 00:00:00 19.5 3 Sudeste 8 Sur 0 -- -- 75
2019-07-28 23:00:00 20.7 3 Norte 9 Norte 0 -- -- 72
2019-07-28 22:00:00 22.7 3 Sur 15 Este 0 -- -- 66
2019-07-28 21:00:00 24 7 Sudeste 21 Sudeste 0 -- -- 59
2019-07-28 20:00:00 25.6 10 Sudeste 30 Norte 0 -- -- 53
2019-07-28 19:00:00 27 16 Norte 39 Norte 0 -- -- 38
2019-07-28 18:00:00 28.1 18 Norte 37 Nordeste 0 -- -- 35
2019-07-28 17:00:00 28.3 21 Norte 45 Norte 0 -- -- 33
2019-07-28 16:00:00 27.9 26 Norte 48 Norte 0 -- -- 33
2019-07-28 15:00:00 27.1 19 Norte 46 Norte 0 -- -- 33
2019-07-28 14:00:00 26.7 28 Norte 59 Norte 0 -- -- 33
2019-07-28 13:00:00 25.6 27 Norte 53 Norte 0 -- -- 35
2019-07-28 12:00:00 25.1 21 Nordeste 51 Norte 0 -- -- 37
2019-07-28 11:00:00 24.1 24 Norte 62 Norte 0 -- -- 39
2019-07-28 10:00:00 22.5 23 Norte 65 Noroeste 0 -- -- 41
2019-07-28 09:00:00 22.2 25 Noroeste 70 Norte 0 -- -- 40
2019-07-28 08:00:00 21.5 34 Norte 68 Noroeste 0 -- -- 38
2019-07-28 07:00:00 20.3 17 Noroeste 43 Noroeste 0 -- -- 43
2019-07-28 06:00:00 20.8 18 Norte 51 Noroeste 0 -- -- 44
2019-07-28 05:00:00 20.4 22 Noroeste 53 Noroeste 0 -- -- 44
2019-07-28 04:00:00 20.6 15 Noroeste 56 Noroeste 0 -- -- 49
2019-07-28 03:00:00 20.5 23 Norte 51 Norte 0 -- -- 55
2019-07-28 02:00:00 20.7 13 Norte 64 Noroeste 0 -- -- 54
2019-07-28 01:00:00 20.9 20 Norte 57 Noroeste 0 -- -- 54
2019-07-28 00:00:00 20.8 15 Norte 39 Noroeste 0 -- -- 55
2019-07-27 23:00:00 20.8 10 Norte 43 Norte 0 -- -- 61
2019-07-26 12:00:00 -- -- -- -- -- -- -- -- --
2019-07-26 11:00:00 29.3 9 Sudoeste 16 Sudoeste 0 -- -- 62
2019-07-26 10:00:00 27.6 5 Sur 11 Sur 0 -- -- 66
2019-07-26 09:00:00 25.7 4 Sudoeste 8 Oeste 0 -- -- 75
2019-07-26 08:00:00 23.5 3 Nordeste 8 Norte 0 -- -- 82
2019-07-26 07:00:00 21.4 6 Nordeste 13 Nordeste 0 -- -- 88
2019-07-26 06:00:00 21.8 9 Nordeste 16 Nordeste 0 -- -- 88
2019-07-26 05:00:00 22.2 8 Nordeste 14 Nordeste 0 -- -- 89
2019-07-26 04:00:00 22.4 8 Nordeste 12 Nordeste 0 -- -- 90
2019-07-26 03:00:00 22.9 4 Nordeste 8 Nordeste 0 -- -- 91
2019-07-26 02:00:00 23.8 4 Nordeste 8 Nordeste 0 -- -- 89
2019-07-26 01:00:00 23.7 3 Nordeste 8 Este 0 -- -- 90
2019-07-26 00:00:00 24.1 3 Este 6 Este 0 -- -- 89
2019-07-25 23:00:00 24.6 3 Este 7 Este 0 -- -- 87
2019-07-25 22:00:00 25.2 2 Este 14 Sudeste 0 -- -- 86
2019-07-25 21:00:00 25.9 5 Sudeste 23 Sur 0 -- -- 83
2019-07-25 20:00:00 27.2 12 Sur 27 Sudeste 0 -- -- 76
2019-07-25 19:00:00 28.3 16 Sur 34 Sur 0 -- -- 69
2019-07-25 18:00:00 29.3 18 Sur 35 Sudeste 0 -- -- 65
2019-07-25 17:00:00 30 22 Sur 39 Sur 0 -- -- 59
2019-07-25 16:00:00 30.6 23 Sudeste 41 Sur 0 -- -- 56
2019-07-25 15:00:00 31.1 23 Sur 36 Sur 0 -- -- 57
2019-07-25 14:00:00 31.4 19 Sur 30 Sur 0 -- -- 56
2019-07-25 13:00:00 31.2 14 Sur 24 Sur 0 -- -- 56
2019-07-25 12:00:00 30.1 13 Sur 22 Sudeste 0 -- -- 57
2019-07-25 11:00:00 28.9 8 Sur 18 Sudoeste 0 -- -- 55
2019-07-25 10:00:00 27 6 Sur 13 Sudoeste 0 -- -- 63
2019-07-25 09:00:00 25.5 4 Sur 8 Sur 0 -- -- 68
2019-07-25 08:00:00 22.3 0 Calma 5 Nordeste 0 -- -- 76
2019-07-25 07:00:00 20.1 5 Nordeste 8 Nordeste 0 -- -- 81
2019-07-25 06:00:00 20.5 4 Norte 12 Nordeste 0 -- -- 80
2019-07-25 05:00:00 20.9 6 Nordeste 14 Nordeste 0 -- -- 78
2019-07-25 04:00:00 21.2 6 Nordeste 9 Nordeste 0 -- -- 77
2019-07-25 03:00:00 22 9 Nordeste 17 Nordeste 0 -- -- 75
2019-07-25 02:00:00 21.5 9 Nordeste 12 Nordeste 0 -- -- 76
2019-07-25 01:00:00 22.1 4 Nordeste 10 Nordeste 0 -- -- 73
2019-07-25 00:00:00 22.9 3 Nordeste 9 Nordeste 0 -- -- 70
2019-07-24 23:00:00 24 3 Nordeste 8 Nordeste 0 -- -- 67
2019-07-24 22:00:00 25.6 3 Nordeste 6 Sur 0 -- -- 67
2019-07-24 21:00:00 27.7 4 Sudoeste 15 Sur 0 -- -- 60
2019-07-24 20:00:00 29.5 9 Sur 19 Sur 0 -- -- 41
2019-07-24 19:00:00 30.4 11 Sur 19 Sudeste 0 -- -- 49
2019-07-24 18:00:00 30.8 12 Sur 24 Sudeste 0 -- -- 50
2019-07-24 17:00:00 31.3 13 Sur 24 Sur 0 -- -- 49
2019-07-24 16:00:00 31.9 16 Sur 29 Sur 0 -- -- 45
2019-07-24 15:00:00 33.1 14 Sur 27 Sur 0 -- -- 47
2019-07-24 14:00:00 32.6 15 Sur 24 Sur 0 -- -- 46
2019-07-24 13:00:00 32.2 14 Sur 24 Sur 0 -- -- 50
2019-07-24 12:00:00 31.5 12 Sur 22 Sur 0 -- -- 56
2019-07-24 11:00:00 30 9 Sudoeste 19 Oeste 0 -- -- 60
2019-07-24 10:00:00 28.2 4 Sudeste 9 Sudoeste 0 -- -- 66
2019-07-24 09:00:00 26 3 Sudoeste 6 Este 0 -- -- 76
2019-07-24 08:00:00 23.5 5 Nordeste 8 Nordeste 0 -- -- 81
2019-07-24 07:00:00 21.3 3 Este 9 Norte 0 -- -- 87
2019-07-24 06:00:00 21.8 6 Nordeste 14 Nordeste 0 -- -- 86
2019-07-24 05:00:00 21.3 9 Nordeste 15 Este 0 -- -- 86
2019-07-24 04:00:00 21.7 5 Norte 13 Nordeste 0 -- -- 85
2019-07-24 03:00:00 22 5 Nordeste 14 Nordeste 0 -- -- 83
2019-07-24 02:00:00 22.5 6 Nordeste 10 Nordeste 0 -- -- 83
2019-07-24 01:00:00 22.9 8 Nordeste 12 Nordeste 0 -- -- 81
2019-07-24 00:00:00 23.4 6 Nordeste 12 Nordeste 0 -- -- 78
2019-07-23 23:00:00 24.2 2 Nordeste 6 Nordeste 0 -- -- 76
2019-07-23 22:00:00 25.8 2 Sudoeste 8 Sur 0 -- -- 73
2019-07-23 21:00:00 27 4 Sur 17 Sur 0 -- -- 67
2019-07-23 20:00:00 28.1 13 Sur 23 Sur 0 -- -- 60
2019-07-23 19:00:00 29.9 14 Sur 24 Sur 0 -- -- 52
2019-07-23 18:00:00 31.1 14 Sur 27 Sur 0 -- -- 44
2019-07-23 17:00:00 31.8 16 Sur 29 Sur 0 -- -- 40
2019-07-23 16:00:00 33 17 Sur 32 Sudoeste 0 -- -- 37
2019-07-23 15:00:00 33.2 16 Sur 26 Sur 0 -- -- 45
2019-07-23 14:00:00 32.6 13 Sudeste 27 Sur 0 -- -- 51
2019-07-23 13:00:00 32 13 Sudeste 24 Sur 0 -- -- 54
2019-07-23 12:00:00 31.4 10 Sur 20 Sur 0 -- -- 55
2019-07-23 11:00:00 30.4 8 Sudoeste 15 Sur 0 -- -- 53
2019-07-23 10:00:00 28.5 4 Sur 9 Sur 0 -- -- 57
2019-07-23 09:00:00 26.6 4 Sudoeste 8 Sudoeste 0 -- -- 65
2019-07-23 08:00:00 24 4 Nordeste 7 Nordeste 0 -- -- 71
2019-07-23 07:00:00 21.3 2 Nordeste 9 Nordeste 0 -- -- 77
2019-07-23 06:00:00 21.9 0 Calma 12 Nordeste 0 -- -- 73
2019-07-23 05:00:00 22.5 5 Nordeste 10 Nordeste 0 -- -- 71
2019-07-23 04:00:00 22.9 4 Norte 13 Nordeste 0 -- -- 69
2019-07-23 03:00:00 23.7 6 Nordeste 10 Nordeste 0 -- -- 67
2019-07-23 02:00:00 24.2 5 Nordeste 7 Nordeste 0 -- -- 65
2019-07-23 01:00:00 25.2 0 Calma 15 Nordeste 0 -- -- 60
2019-07-23 00:00:00 26.4 3 Nordeste 17 Nordeste 0 -- -- 59
2019-07-22 23:00:00 26.7 8 Nordeste 12 Nordeste 0 -- -- 62
2019-07-22 22:00:00 27.9 4 Norte 8 Nordeste 0 -- -- 60
2019-07-22 21:00:00 29.9 3 Nordeste 7 Nordeste 0 -- -- 54
2019-07-22 20:00:00 30.6 2 Sudeste 12 Sur 0 -- -- 51
2019-07-22 19:00:00 31.5 9 Sur 21 Sur 0 -- -- 51
2019-07-22 18:00:00 32.4 13 Sur 22 Sur 0 -- -- 49
2019-07-22 17:00:00 32.7 15 Sur 26 Sur 0 -- -- 49
2019-07-22 16:00:00 33.2 18 Sur 29 Sur 0 -- -- 49
2019-07-22 15:00:00 34.9 12 Sur 24 Sur 0 -- -- 43
2019-07-22 14:00:00 34.2 13 Sur 25 Sudoeste 0 -- -- 46
2019-07-22 13:00:00 33.9 13 Sur 24 Sudoeste 0 -- -- 46
2019-07-22 12:00:00 32.8 8 Sur 20 Sur 0 -- -- 49
2019-07-22 11:00:00 31.5 8 Sur 17 Sur 0 -- -- 53
2019-07-22 10:00:00 29 5 Sudoeste 10 Sudoeste 0 -- -- 59
2019-07-22 09:00:00 27 3 Sur 5 Sur 0 -- -- 65
2019-07-22 08:00:00 24.4 0 Calma 9 Nordeste 0 -- -- 74
2019-07-22 07:00:00 22.4 0 Calma 12 Nordeste 0 -- -- 78
2019-07-22 06:00:00 21.7 0 Calma 8 Nordeste 0 -- -- 81
2019-07-22 05:00:00 21.8 4 Nordeste 7 Norte 0 -- -- 80
2019-07-22 04:00:00 22.1 6 Nordeste 9 Nordeste 0 -- -- 79
2019-07-22 03:00:00 22.1 3 Norte 10 Este 0 -- -- 77
2019-07-22 02:00:00 22.3 2 Nordeste 11 Norte 0 -- -- 75
2019-07-22 01:00:00 22.4 3 Nordeste 10 Norte 0 -- -- 75
2019-07-22 00:00:00 22.8 5 Norte 8 Norte 0 -- -- 72
2019-07-21 23:00:00 23.9 0 Calma 4 Nordeste 0 -- -- 68
2019-07-21 22:00:00 25.2 0 Calma 5 Sur 0 -- -- 66
2019-07-21 21:00:00 26.1 4 Sudoeste 10 Sudoeste 0 -- -- 63
2019-07-21 20:00:00 27.2 6 Sur 14 Sur 0 -- -- 58
2019-07-21 19:00:00 28.3 9 Sur 18 Sur 0 -- -- 57
2019-07-21 18:00:00 30.2 12 Sur 21 Sur 0 -- -- 52
2019-07-21 17:00:00 30.9 12 Sur 24 Sudeste 0 -- -- 53
2019-07-21 16:00:00 30.7 12 Sur 25 Sur 0 -- -- 55
2019-07-21 15:00:00 30.8 14 Sur 26 Sur 0 -- -- 54
2019-07-21 14:00:00 30.5 13 Sur 24 Sur 0 -- -- 57
2019-07-21 13:00:00 30 12 Sudoeste 26 Sur 0 -- -- 60
2019-07-21 12:00:00 29.6 12 Sudoeste 20 Sudoeste 0 -- -- 61
2019-07-21 11:00:00 28 5 Sudeste 14 Sur 0 -- -- 66
2019-07-21 10:00:00 26.2 6 Sur 12 Sur 0 -- -- 72
2019-07-21 09:00:00 24.7 3 Sudoeste 6 Sudoeste 0 -- -- 78
2019-07-21 08:00:00 22.7 6 Nordeste 9 Nordeste 0 -- -- 85
2019-07-21 07:00:00 20.6 0 Calma 9 Nordeste 0 -- -- 90
2019-07-21 06:00:00 20.9 3 Nordeste 9 Nordeste 0 -- -- 89
2019-07-21 05:00:00 21.3 3 Nordeste 7 Nordeste 0 -- -- 86
2019-07-21 04:00:00 21.3 2 Norte 9 Nordeste 0 -- -- 86
2019-07-21 03:00:00 21.3 6 Nordeste 13 Nordeste 0 -- -- 86
2019-07-21 02:00:00 21.4 6 Nordeste 10 Nordeste 0 -- -- 86
2019-07-21 01:00:00 21.7 3 Nordeste 6 Nordeste 0 -- -- 84
2019-07-21 00:00:00 22.3 2 Norte 6 Nordeste 0 -- -- 82
2019-07-20 23:00:00 23.1 0 Calma 5 Norte 0 -- -- 78
2019-07-20 22:00:00 24.3 0 Calma 13 Sur 0 -- -- 76
2019-07-20 21:00:00 25 9 Sur 20 Sur 0 -- -- 74
2019-07-20 20:00:00 26.2 12 Sudeste 27 Sudeste 0 -- -- 72
2019-07-20 19:00:00 26.8 20 Sur 36 Sur 0 -- -- 71
2019-07-20 18:00:00 27.5 24 Sur 38 Sudeste 0 -- -- 70
2019-07-20 17:00:00 28.4 23 Sur 39 Sur 0 -- -- 66
2019-07-20 16:00:00 28.8 21 Sur 38 Sur 0 -- -- 67
2019-07-20 15:00:00 28.9 22 Sur 36 Sur 0 -- -- 60
2019-07-20 14:00:00 29.3 19 Sur 32 Sur 0 -- -- 63
2019-07-20 13:00:00 30.4 16 Sur 30 Sur 0 -- -- 55
2019-07-20 12:00:00 28.6 11 Sudeste 20 Este 0 -- -- 53
2019-07-20 11:00:00 26.1 5 Sudoeste 12 Sur 0 -- -- 62
2019-07-20 10:00:00 24.4 5 Sur 10 Sur 0 -- -- 72
2019-07-20 09:00:00 23.2 4 Sur 10 Sudeste 0 -- -- 77
2019-07-20 08:00:00 22.9 5 Sudeste 9 Sudeste 0 -- -- 81
2019-07-20 07:00:00 21.3 4 Nordeste 6 Norte 0 -- -- 89
2019-07-20 06:00:00 22 3 Nordeste 6 Norte 0 -- -- 87
2019-07-20 05:00:00 21.7 0 Calma 9 Nordeste 0 -- -- 87
2019-07-20 04:00:00 20.6 3 Nordeste 9 Nordeste 0 -- -- 90
2019-07-20 03:00:00 20.5 4 Nordeste 9 Nordeste 0 -- -- 88
2019-07-20 02:00:00 20.9 6 Nordeste 8 Nordeste 0 -- -- 85
2019-07-20 01:00:00 21.6 2 Nordeste 10 Nordeste 0 -- -- 82
2019-07-20 00:00:00 22.2 2 Nordeste 8 Nordeste 0 -- -- 79
2019-07-19 23:00:00 23.2 3 Nordeste 6 Nordeste 0 -- -- 76
2019-07-19 22:00:00 24.1 4 Este 7 Este 0 -- -- 72
2019-07-19 21:00:00 25.2 3 Sudeste 16 Sudeste 0 -- -- 68
2019-07-19 20:00:00 25.6 9 Sur 24 Sur 0 -- -- 65
2019-07-19 19:00:00 26.8 14 Sur 27 Sur 0 -- -- 57
2019-07-19 18:00:00 28 16 Sur 28 Sur 0 -- -- 53
2019-07-19 17:00:00 28.5 18 Sur 33 Sur 0 -- -- 52
2019-07-19 16:00:00 28.8 18 Sur 34 Sur 0 -- -- 50
2019-07-19 15:00:00 29.3 20 Sur 30 Sur 0 -- -- 50
2019-07-19 14:00:00 29.7 14 Sur 24 Sudoeste 0 -- -- 50
2019-07-19 13:00:00 28.6 7 Sur 19 Sur 0 -- -- 47
2019-07-19 12:00:00 28 9 Sudoeste 20 Sur 0 -- -- 48
2019-07-19 11:00:00 26.6 6 Sudoeste 13 Sudoeste 0 -- -- 47
2019-07-19 10:00:00 25.4 6 Sudoeste 13 Sudoeste 0 -- -- 51
2019-07-19 09:00:00 25.2 3 Sudoeste 6 Sudoeste 0 -- -- 50
2019-07-19 08:00:00 21.6 0 Calma 11 Nordeste 0 -- -- 63
2019-07-19 07:00:00 19.3 9 Nordeste 13 Nordeste 0 -- -- 64
2019-07-19 06:00:00 18.6 0 Calma 9 Norte 0 -- -- 67
2019-07-19 05:00:00 17.8 4 Nordeste 9 Norte 0 -- -- 73
2019-07-19 04:00:00 18.5 0 Calma 12 Nordeste 0 -- -- 68
2019-07-19 03:00:00 18.4 3 Nordeste 9 Norte 0 -- -- 68
2019-07-19 02:00:00 19.4 4 Sudeste 13 Norte 0 -- -- 67
2019-07-19 01:00:00 20.1 4 Nordeste 10 Nordeste 0 -- -- 64
2019-07-19 00:00:00 20.6 3 Noroeste 7 Noroeste 0 -- -- 65
2019-07-18 23:00:00 22 2 Sur 8 Norte 0 -- -- 64
2019-07-18 22:00:00 24.2 4 Norte 9 Este 0 -- -- 63
2019-07-18 21:00:00 25.9 5 Sudeste 14 Sudeste 0 -- -- 59
2019-07-18 20:00:00 26.7 9 Sur 17 Sur 0 -- -- 57
2019-07-18 19:00:00 28 10 Sudoeste 22 Sur 0 -- -- 54
2019-07-18 18:00:00 27.8 13 Sudoeste 28 Sur 0 -- -- 51
2019-07-18 17:00:00 29 17 Sur 28 Sur 0 -- -- 45
2019-07-18 16:00:00 30.1 13 Sudoeste 42 Sudoeste 0 -- -- 42
2019-07-18 15:00:00 32.2 7 Noroeste 23 Sur 0 -- -- 36
2019-07-18 14:00:00 30.4 13 Sur 31 Sudeste 0 -- -- 40
2019-07-18 13:00:00 30.5 15 Sur 29 Sur 0 -- -- 40
2019-07-18 12:00:00 30.2 9 Este 21 Este 0 -- -- 38
2019-07-18 11:00:00 29.1 9 Norte 25 Noroeste 0 -- -- 40
2019-07-18 10:00:00 27.9 5 Sudoeste 18 Noroeste 0 -- -- 43
2019-07-18 09:00:00 25.9 9 Norte 30 Norte 0 -- -- 46
2019-07-18 08:00:00 23.2 4 Noroeste 9 Noroeste 0 -- -- 55
2019-07-18 07:00:00 23.5 4 Sur 27 Norte 0 -- -- 52
2019-07-18 06:00:00 24.3 13 Norte 39 Norte 0 -- -- 48
2019-07-18 05:00:00 23.9 22 Norte 45 Norte 0 -- -- 51
2019-07-18 04:00:00 24.4 24 Norte 44 Noroeste 0 -- -- 52
2019-07-18 03:00:00 25.4 18 Noroeste 46 Norte 0 -- -- 52
2019-07-18 02:00:00 26.3 19 Norte 42 Norte 0 -- -- 47
2019-07-18 01:00:00 27 22 Norte 41 Norte 0 -- -- 44
2019-07-18 00:00:00 26.9 20 Norte 33 Noroeste 0 -- -- 44